NEODyS-2

Near Earth Objects - Dynamic Site
NEODyS ∴ Observatories ∴ Site 691 ∴ Obs & residuals
Contact »
691  ▹ 
OBSERVATIONS AND RESIDUALS

691-Steward Observatory, Kitt Peak-Spacewatch

Detections | Residuals | Detections & Residuals

[1-200] [201-400] [401-600] [601-800] [801-1000] [1001-1200] [1201-1400] [1401-1600] [1601-1800] [1801-2000] [2001-2200] [2201-2400] [2401-2600] [2601-2800] [2801-3000] [3001-3200] [3201-3400] [3401-3600] [3601-3800] [3801-4000] [4001-4200] [4201-4400] [4401-4600] [4601-4800] [4801-5000] [5001-5200] [5201-5400] [5401-5600] [5601-5800] [5801-6000] [6001-6200] [6201-6400] [6401-6600] [6601-6800] [6801-7000] [7001-7200] [7201-7400] [7401-7600] [7601-7800] [7801-8000] [8001-8200] [8201-8400] [8401-8600] [8601-8800] [8801-9000] [9001-9200] [9201-9400] [9401-9600] [9601-9800] [9801-10000] [10001-10200] [10201-10400] [10401-10600] [10601-10800] [10801-11000] [11001-11200] [11201-11400] [11401-11600] [11601-11800] [11801-12000] [12001-12200] [12201-12400] [12401-12600] [12601-12800] [12801-13000] [13001-13200] [13201-13400] [13401-13600] [13601-13800] [13801-14000] [14001-14200] [14201-14400] [14401-14600] [14601-14800] [14801-15000] [15001-15200] [15201-15400] [15401-15600] [15601-15800] [15801-16000] [16001-16200] [16201-16400] [16401-16600] [16601-16800] [16801-17000] [17001-17200] [17201-17400] [17401-17600] [17601-17800] [17801-18000] [18001-18200] [18201-18400] [18401-18600] [18601-18800] [18801-19000] [19001-19200] [19201-19400] [19401-19600] [19601-19800] [19801-20000] [20001-20200] [20201-20400] [20401-20600] [20601-20800] [20801-21000] [21001-21200] [21201-21400] [21401-21600] [21601-21800] [21801-22000] [22001-22200] [22201-22400] [22401-22600] [22601-22800] [22801-23000] [23001-23200] [23201-23400] [23401-23600] [23601-23800] [23801-24000] [24001-24200] [24201-24400] [24401-24600] [24601-24800] [24801-25000] [25001-25200] [25201-25400] [25401-25600] [25601-25800] [25801-26000] [26001-26200] [26201-26400] [26401-26600] [26601-26800] [26801-27000] [27001-27200] [27201-27400] [27401-27600] [27601-27800] [27801-28000] [28001-28200] [28201-28400] [28401-28600] [28601-28800] [28801-29000] [29001-29200] [29201-29400] [29401-29600] [29601-29800] [29801-30000] [30001-30200] [30201-30400] [30401-30600] [30601-30800] [30801-31000] [31001-31200] [31201-31400] [31401-31600] [31601-31800] [31801-32000] [32001-32200] [32201-32400] [32401-32600] [32601-32800] [32801-33000] [33001-33200] [33201-33400] [33401-33600] [33601-33800] [33801-34000] [34001-34200] [34201-34400] [34401-34600] [34601-34800] [34801-35000] [35001-35200] [35201-35400] [35401-35600] [35601-35800] [35801-36000] [36001-36200] [36201-36400] [36401-36600] [36601-36800] [36801-37000] [37001-37200] [37201-37400] [37401-37600] [37601-37800] [37801-38000] [38001-38200] [38201-38400] [38401-38600] [38601-38800] [38801-39000] [39001-39200] [39201-39400] [39401-39600] [39601-39800] [39801-40000] [40001-40200] [40201-40400] [40401-40600] [40601-40800] [40801-41000] [41001-41200] [41201-41400] [41401-41600] [41601-41800] [41801-42000] [42001-42200] [42201-42400] [42401-42600] [42601-42800] [42801-43000] [43001-43200] [43201-43400] [43401-43600] [43601-43800] [43801-44000] [44001-44200] [44201-44400] [44401-44600] [44601-44800] [44801-45000] [45001-45200] [45201-45400] [45401-45600] [45601-45800] [45801-46000] [46001-46200] [46201-46400] [46401-46600] [46601-46800] [46801-47000] [47001-47200] [47201-47400] [47401-47600] [47601-47800] [47801-48000] [48001-48200] [48201-48400] [48401-48600] [48601-48800] [48801-49000] [49001-49200] [49201-49400] [49401-49600] [49601-49800] [49801-50000] [50001-50200] [50201-50388]

Designation T Tech N Date Right Ascension Declination Apparent Magnitude Star Catalog Site code χ Used A Used M
yr-mo-day precision hr:min:sec precision rms F bias residual deg min sec precision rms F bias residual mag/col rms residual
2000WK107 O C 2000-11-28.19644 1.000E-05 02:25:18.030 1.500E-01 0.600 F 0.172 0.350 +15° 20' 19.50" 1.000E-01 0.600 F -0.439 0.703 20.4 V 0.70 0.07 b 691 1.32 Yes Yes
2000WN63 O C 2000-11-28.22143 1.000E-05 03:01:16.650 1.500E-01 0.600 F -0.126 0.355 +17° 34' 30.70" 1.000E-01 0.600 F 0.377 -0.018 21.7 V 0.70 0.62 b 691 0.59 Yes Yes
2000WK107 O C 2000-11-28.22840 1.000E-05 02:25:15.940 1.500E-01 0.600 F 0.172 0.435 +15° 19' 32.70" 1.000E-01 0.600 F -0.439 0.530 20.0 V 0.70 -0.33 b 691 1.15 Yes Yes
2000WN63 O C 2000-11-28.25187 1.000E-05 03:01:12.770 1.500E-01 0.600 F -0.126 0.182 +17° 34' 28.70" 1.000E-01 0.600 F 0.377 -0.009 21.8 V 0.70 0.72 b 691 0.30 Yes Yes
2000WK107 O C 2000-11-28.25862 1.000E-05 02:25:13.930 1.500E-01 0.600 F 0.172 -0.006 +15° 18' 48.80" 1.000E-01 0.600 F -0.439 0.793 20.7 V 0.70 0.37 b 691 1.33 Yes Yes
2000NF5 O C 2000-11-29.06592 1.000E-05 00:26:31.990 1.500E-01 0.600 F 0.176 -0.201 +04° 56' 20.80" 1.000E-01 0.600 F 0.284 -0.297 19.2 V 0.70 -0.10 b 691 0.60 Yes Yes
2000NF5 O C 2000-11-29.08668 1.000E-05 00:26:32.800 1.500E-01 0.600 F 0.176 -0.364 +04° 56' 24.70" 1.000E-01 0.600 F 0.284 -0.265 19.3 V 0.70 0.00 b 691 0.75 Yes Yes
2000NF5 O C 2000-11-29.10749 1.000E-05 00:26:33.630 1.500E-01 0.600 F 0.176 -0.234 +04° 56' 28.50" 1.000E-01 0.600 F 0.284 -0.339 19.3 V 0.70 0.00 b 691 0.69 Yes Yes
2000WK107 O C 2000-11-29.20609 1.000E-05 02:24:16.070 1.500E-01 0.600 F 0.172 -0.026 +14° 55' 46.00" 1.000E-01 0.600 F -0.439 -0.497 20.6 V 0.70 0.26 b 691 0.83 Yes Yes
2000WK107 O C 2000-11-29.21026 1.000E-05 02:24:15.810 1.500E-01 0.600 F 0.172 0.058 +14° 55' 40.00" 1.000E-01 0.600 F -0.439 -0.428 20.7 V 0.70 0.36 b 691 0.73 Yes Yes
2000WK107 O C 2000-11-29.21412 1.000E-05 02:24:15.560 1.500E-01 0.600 F 0.172 0.000 +14° 55' 34.40" 1.000E-01 0.600 F -0.439 -0.409 20.6 V 0.70 0.26 b 691 0.69 Yes Yes
2000WN63 O C 2000-11-29.21895 1.000E-05 02:59:13.660 1.500E-01 0.600 F -0.126 0.389 +17° 33' 23.40" 1.000E-01 0.600 F 0.377 -0.311 21.6 V 0.70 0.50 b 691 0.83 Yes Yes
2000WN63 O C 2000-11-29.22289 1.000E-05 02:59:13.150 1.500E-01 0.600 F -0.126 0.194 +17° 33' 22.90" 1.000E-01 0.600 F 0.377 -0.554 21.5 V 0.70 0.40 b 691 0.98 Yes Yes
2000WN63 O C 2000-11-29.22680 1.000E-05 02:59:12.660 1.500E-01 0.600 F -0.126 0.231 +17° 33' 22.80" 1.000E-01 0.600 F 0.377 -0.398 21.6 V 0.70 0.50 b 691 0.77 Yes Yes
2000WK107 O C 2000-12-01.37519 1.000E-05 02:22:09.250 1.500E-01 0.600 F 0.211 0.208 +14° 03' 19.30" 1.000E-01 0.600 F 0.213 -0.545 20.7 V 0.70 0.32 b 691 0.98 Yes Yes
2000WK107 O C 2000-12-01.37902 1.000E-05 02:22:09.010 1.500E-01 0.600 F 0.211 -0.063 +14° 03' 14.00" 1.000E-01 0.600 F 0.213 -0.276 20.6 V 0.70 0.22 b 691 0.48 Yes Yes
2000WK107 O C 2000-12-01.38285 1.000E-05 02:22:08.770 1.500E-01 0.600 F 0.211 -0.339 +14° 03' 08.40" 1.000E-01 0.600 F 0.213 -0.308 20.5 V 0.70 0.12 b 691 0.77 Yes Yes
2000WN63 O C H 2000-12-01.38763 1.000E-05 02:54:49.920 1.500E-01 0.600 F 0.188 -0.430 +17° 30' 57.90" 1.000E-01 0.600 F 0.181 0.262 21.1 V 0.70 -0.05 b 691 0.84 Yes Yes
2000WN63 O C H 2000-12-01.39156 1.000E-05 02:54:49.490 1.500E-01 0.600 F 0.188 0.262 +17° 30' 57.00" 1.000E-01 0.600 F 0.181 -0.333 21.5 V 0.70 0.35 b 691 0.71 Yes Yes
2000WN63 O C H 2000-12-01.39571 1.000E-05 02:54:48.960 1.500E-01 0.600 F 0.188 -0.098 +17° 30' 57.00" 1.000E-01 0.600 F 0.181 -0.010 21.3 V 0.70 0.15 b 691 0.17 Yes Yes
2000WN63 O C 2000-12-03.23663 1.000E-05 02:51:11.430 1.500E-01 0.600 F 0.347 -0.326 +17° 28' 58.30" 1.000E-01 0.600 F 0.240 -0.528 22.1 V 0.70 0.91 b 691 1.04 Yes Yes
2000WN63 O C 2000-12-03.24290 1.000E-05 02:51:10.700 1.500E-01 0.600 F 0.347 0.004 +17° 28' 57.80" 1.000E-01 0.600 F 0.240 -0.625 21.7 V 0.70 0.51 b 691 1.04 Yes Yes
2000WN63 O C 2000-12-03.24953 1.000E-05 02:51:09.910 1.500E-01 0.600 F 0.347 0.092 +17° 28' 57.90" 1.000E-01 0.600 F 0.240 -0.095 21.8 V 0.70 0.61 b 691 0.22 Yes Yes
2000WK107 O C 2000-12-05.06449 1.000E-05 02:18:57.970 1.500E-01 0.600 F 0.180 -0.175 +12° 35' 36.60" 1.000E-01 0.600 F 0.188 -0.336 20.5 V 0.70 0.07 b 691 0.64 Yes Yes
2000WK107 O C 2000-12-05.06831 1.000E-05 02:18:57.790 1.500E-01 0.600 F 0.180 -0.005 +12° 35' 31.50" 1.000E-01 0.600 F 0.188 -0.094 20.5 V 0.70 0.07 b 691 0.16 Yes Yes
2000WK107 O C 2000-12-05.07217 1.000E-05 02:18:57.580 1.500E-01 0.600 F 0.180 -0.241 +12° 35' 26.30" 1.000E-01 0.600 F 0.188 0.105 20.4 V 0.70 -0.03 b 691 0.45 Yes Yes
2000WN63 O C H 2000-12-05.07629 1.000E-05 02:47:40.080 1.500E-01 0.600 F 0.222 0.215 +17° 27' 05.90" 1.000E-01 0.600 F 0.247 0.439 21.0 V 0.70 -0.23 b 691 0.82 Yes Yes
2000WN63 O C H 2000-12-05.08038 1.000E-05 02:47:39.560 1.500E-01 0.600 F 0.222 -0.471 +17° 27' 05.40" 1.000E-01 0.600 F 0.247 0.135 21.1 V 0.70 -0.13 b 691 0.82 Yes Yes
2000WN63 O C H 2000-12-05.08449 1.000E-05 02:47:39.070 1.500E-01 0.600 F 0.222 -0.692 +17° 27' 04.30" 1.000E-01 0.600 F 0.247 -0.767 21.1 V 0.70 -0.13 b 691 1.73 Yes Yes
2000TV28 O C H 2000-12-05.10207 1.000E-05 02:03:16.150 1.500E-01 0.600 F 0.138 -0.203 +10° 22' 00.80" 1.000E-01 0.600 F -0.021 0.663 20.4 V 0.70 -0.96 b 691 1.18 Yes Yes
2000TV28 O C H 2000-12-05.10641 1.000E-05 02:03:16.660 1.500E-01 0.600 F 0.138 -0.578 +10° 22' 04.30" 1.000E-01 0.600 F -0.021 -0.715 20.7 V 0.70 -0.66 b 691 1.59 Yes Yes
2000TV28 O C H 2000-12-05.11035 1.000E-05 02:03:17.160 1.500E-01 0.600 F 0.138 -0.367 +10° 22' 08.90" 1.000E-01 0.600 F -0.021 -0.542 21.3 V 0.70 -0.06 b 691 1.13 Yes Yes
2000XF44 O C 2000-12-06.07176 1.000E-05 02:53:49.480 1.500E-01 0.600 F 0.247 -0.810 +07° 13' 13.10" 1.000E-01 0.600 F 0.157 0.000 18.5 V 0.70 0.00 b 691 1.42 Yes Yes
2000XF44 O C 2000-12-06.09271 1.000E-05 02:53:58.380 1.500E-01 0.600 F 0.247 0.200 +07° 11' 31.90" 1.000E-01 0.600 F 0.157 -0.852 18.4 V 0.70 -0.10 b 691 1.53 Yes Yes
2000XF44 O C 2000-12-06.11357 1.000E-05 02:54:07.170 1.500E-01 0.600 F 0.247 0.850 +07° 09' 51.70" 1.000E-01 0.600 F 0.157 -1.110 18.3 V 0.70 -0.20 b 691 2.46 Yes Yes
2000QN130 O C 2000-12-16.28452 1.000E-05 04:04:00.310 1.500E-01 0.600 F -0.135 0.239 +16° 36' 02.20" 1.000E-01 0.600 F -0.157 0.484 17.7 V 0.70 0.39 b 691 0.90 Yes Yes
2000QN130 O C 2000-12-16.31229 1.000E-05 04:04:02.460 1.500E-01 0.600 F -0.135 0.216 +16° 36' 25.60" 1.000E-01 0.600 F -0.157 0.581 17.7 V 0.70 0.39 b 691 1.04 Yes Yes
2000QN130 O C 2000-12-16.34006 1.000E-05 04:04:04.630 1.500E-01 0.600 F -0.135 0.208 +16° 36' 48.60" 1.000E-01 0.600 F -0.157 0.453 17.8 V 0.70 0.49 b 691 0.83 Yes Yes
2000QN130 O C 2000-12-17.06508 1.000E-05 04:05:09.140 1.500E-01 0.600 F -0.135 -0.191 +16° 46' 59.70" 1.000E-01 0.600 F -0.157 0.044 17.9 V 0.70 0.55 b 691 0.33 Yes Yes
2000QN130 O C 2000-12-17.06995 1.000E-05 04:05:09.530 1.500E-01 0.600 F -0.135 -0.325 +16° 47' 03.90" 1.000E-01 0.600 F -0.157 -0.016 17.9 V 0.70 0.55 b 691 0.55 Yes Yes
2000QN130 O C 2000-12-17.07490 1.000E-05 04:05:09.940 1.500E-01 0.600 F -0.135 -0.249 +16° 47' 08.40" 1.000E-01 0.600 F -0.157 0.157 18.0 V 0.70 0.65 b 691 0.49 Yes Yes
2000VH61 O C 2000-12-17.11520 1.000E-05 00:24:23.770 1.500E-01 0.600 F -0.055 0.471 -01° 17' 40.30" 1.000E-01 0.600 F 0.428 -0.258 21.7 V 0.70 0.77 b 691 0.91 Yes Yes
2000VH61 O C 2000-12-17.11911 1.000E-05 00:24:24.080 1.500E-01 0.600 F -0.055 0.249 -01° 17' 39.60" 1.000E-01 0.600 F 0.428 0.186 21.6 V 0.70 0.67 b 691 0.53 Yes Yes
2000VH61 O C 2000-12-17.12300 1.000E-05 00:24:24.470 1.500E-01 0.600 F -0.055 1.251 -01° 17' 40.40" 1.000E-01 0.600 F 0.428 -0.869 22.7 V 0.70 1.77 b 691 2.58 Yes Yes
2000WK107 O C 2000-12-17.12963 1.000E-05 02:12:20.630 1.500E-01 0.600 F -0.294 0.108 +08° 12' 53.50" 1.000E-01 0.600 F 0.124 -0.235 21.0 V 0.70 0.40 b 691 0.44 Yes Yes
2000WK107 O C 2000-12-17.13355 1.000E-05 02:12:20.550 1.500E-01 0.600 F -0.294 0.104 +08° 12' 49.20" 1.000E-01 0.600 F 0.124 0.110 20.7 V 0.70 0.10 b 691 0.25 Yes Yes
2000WK107 O C 2000-12-17.13753 1.000E-05 02:12:20.480 1.500E-01 0.600 F -0.294 0.266 +08° 12' 44.20" 1.000E-01 0.600 F 0.124 -0.175 20.9 V 0.70 0.30 b 691 0.54 Yes Yes
2000YG4 O C 2000-12-17.47248 1.000E-05 07:32:52.020 1.500E-01 0.600 F 0.220 -0.796 +20° 13' 31.80" 1.000E-01 0.600 F -0.061 -0.464 20.1 V 0.70 0.42 b 691 1.55 Yes Yes
2000YG4 O C 2000-12-17.49617 1.000E-05 07:32:54.000 1.500E-01 0.600 F 0.220 -0.809 +20° 13' 12.60" 1.000E-01 0.600 F -0.061 -0.525 19.9 V 0.70 0.22 b 691 1.63 Yes Yes
2000YG4 O C 2000-12-17.51930 1.000E-05 07:32:55.950 1.500E-01 0.600 F 0.220 -0.897 +20° 12' 54.10" 1.000E-01 0.600 F -0.061 -0.196 20.1 V 0.70 0.42 b 691 1.55 Yes Yes
2000YG4 O C 2000-12-18.43016 1.000E-05 07:34:20.480 1.500E-01 0.600 F 0.538 -0.614 +20° 00' 55.00" 1.000E-01 0.600 F -0.477 0.320 20.8 V 0.70 1.18 b 691 1.17 Yes Yes
2000YG4 O C 2000-12-18.43437 1.000E-05 07:34:20.830 1.500E-01 0.600 F 0.538 -0.568 +20° 00' 50.60" 1.000E-01 0.600 F -0.477 -0.630 20.5 V 0.70 0.88 b 691 1.43 Yes Yes
2000YG4 O C 2000-12-18.43846 1.000E-05 07:34:21.150 1.500E-01 0.600 F 0.538 -0.809 +20° 00' 47.10" 1.000E-01 0.600 F -0.477 -0.774 20.6 V 0.70 0.98 b 691 1.89 Yes Yes
2000YG4 O C 2000-12-19.43156 1.000E-05 07:35:52.920 1.500E-01 0.600 F 0.538 -0.466 +19° 47' 15.00" 1.000E-01 0.600 F -0.477 -0.591 19.9 V 0.70 0.35 b 691 1.27 Yes Yes
2000YG4 O C 2000-12-19.43569 1.000E-05 07:35:53.270 1.500E-01 0.600 F 0.538 -0.343 +19° 47' 11.50" 1.000E-01 0.600 F -0.477 -0.589 19.8 V 0.70 0.25 b 691 1.15 Yes Yes
2000YG4 O C 2000-12-19.43975 1.000E-05 07:35:53.600 1.500E-01 0.600 F 0.538 -0.426 +19° 47' 08.10" 1.000E-01 0.600 F -0.477 -0.541 19.9 V 0.70 0.35 b 691 1.16 Yes Yes
2000YA O C t 2000-12-20.14731 1.000E-05 03:46:31.580 1.500E-01 0.600 F 0.056 -0.067 +25° 46' 26.50" 1.000E-01 0.600 F -0.234 1.082 16.2 V 0.70 -0.13 b 691 1.83 Yes Yes
2000YA O C t 2000-12-20.15158 1.000E-05 03:46:24.780 1.500E-01 0.600 F 0.056 -0.240 +25° 47' 39.70" 1.000E-01 0.600 F -0.234 1.242 16.2 V 0.70 -0.12 b 691 2.14 Yes Yes
2000YA O C t 2000-12-20.15622 1.000E-05 03:46:17.430 1.500E-01 0.600 F 0.056 0.667 +25° 48' 58.80" 1.000E-01 0.600 F -0.234 0.818 16.2 V 0.70 -0.12 b 691 1.78 Yes Yes
2000YG4 O C H 2000-12-20.32867 1.000E-05 07:37:17.160 1.500E-01 0.600 F 0.295 -0.825 +19° 34' 38.70" 1.000E-01 0.600 F -0.314 0.398 19.8 V 0.70 0.31 b 691 1.55 Yes Yes
2000YG4 O C H 2000-12-20.33279 1.000E-05 07:37:17.590 1.500E-01 0.600 F 0.295 0.427 +19° 34' 34.80" 1.000E-01 0.600 F -0.314 -0.033 20.3 V 0.70 0.81 b 691 0.72 Yes Yes
2000YG4 O C H 2000-12-20.33678 1.000E-05 07:37:17.910 1.500E-01 0.600 F 0.295 0.281 +19° 34' 31.30" 1.000E-01 0.600 F -0.314 -0.169 20.2 V 0.70 0.71 b 691 0.56 Yes Yes
1998VD35 O C 2000-12-21.22041 1.000E-05 05:10:39.360 1.500E-01 0.600 F -0.587 -0.177 -19° 58' 41.50" 1.000E-01 0.600 F -0.028 -0.720 18.1 V 0.70 0.56 b 691 1.36 Yes Yes
1998VD35 O C 2000-12-21.22479 1.000E-05 05:10:38.720 1.500E-01 0.600 F -0.587 -0.221 -19° 59' 19.60" 1.000E-01 0.600 F -0.028 0.149 18.1 V 0.70 0.56 b 691 0.49 Yes Yes
1998VD35 O C 2000-12-21.23015 1.000E-05 05:10:37.940 1.500E-01 0.600 F -0.587 -0.206 -20° 00' 07.00" 1.000E-01 0.600 F -0.028 0.431 18.0 V 0.70 0.46 b 691 0.89 Yes Yes
2000YG4 O C 2000-12-21.31193 1.000E-05 07:38:49.080 1.500E-01 0.600 F 0.295 -0.260 +19° 20' 20.90" 1.000E-01 0.600 F -0.314 -0.402 19.6 V 0.70 0.18 b 691 0.81 Yes Yes
2000YG4 O C 2000-12-21.31659 1.000E-05 07:38:49.460 1.500E-01 0.600 F 0.295 -0.394 +19° 20' 16.80" 1.000E-01 0.600 F -0.314 -0.466 19.5 V 0.70 0.08 b 691 1.03 Yes Yes
2000YG4 O C 2000-12-21.32109 1.000E-05 07:38:49.810 1.500E-01 0.600 F 0.295 -0.756 +19° 20' 12.80" 1.000E-01 0.600 F -0.314 -0.563 19.3 V 0.70 -0.12 b 691 1.59 Yes Yes
2000QN130 O C H 2000-12-24.21063 1.000E-05 04:15:30.830 1.500E-01 0.600 F -0.046 -0.143 +18° 21' 22.00" 1.000E-01 0.600 F 0.315 1.033 18.5 V 0.70 0.78 d 691 1.74 Yes Yes
2000QN130 O C H 2000-12-24.22172 1.000E-05 04:15:31.690 1.500E-01 0.600 F -0.046 -0.578 +18° 21' 30.90" 1.000E-01 0.600 F 0.315 1.679 18.5 V 0.70 0.78 d 691 2.97 Yes Yes
2000YG4 O C H 2000-12-24.52963 1.000E-05 07:43:51.690 1.500E-01 0.600 F 0.437 1.123 +18° 30' 10.60" 1.000E-01 0.600 F 0.367 0.426 21.4 V 0.70 2.19 d 691 2.03 Yes No
2000YG4 O C H 2000-12-24.53421 1.000E-05 07:43:52.040 1.500E-01 0.600 F 0.437 0.257 +18° 30' 06.10" 1.000E-01 0.600 F 0.367 0.644 21.1 V 0.70 1.89 d 691 1.17 Yes Yes
2000YG4 O C H 2000-12-24.53901 1.000E-05 07:43:52.440 1.500E-01 0.600 F 0.437 -0.200 +18° 30' 01.80" 1.000E-01 0.600 F 0.367 1.294 21.1 V 0.70 1.89 d 691 2.21 Yes Yes
2000YN29 O C 2000-12-28.15981 1.000E-05 05:13:43.990 1.500E-01 0.600 F -0.014 -0.342 +25° 45' 06.00" 1.000E-01 0.600 F 0.239 -0.290 19.8 V 0.70 0.21 d 691 0.76 Yes Yes
2000YN29 O C 2000-12-28.18311 1.000E-05 05:13:41.170 1.500E-01 0.600 F -0.014 -0.414 +25° 45' 07.60" 1.000E-01 0.600 F 0.239 -0.316 19.9 V 0.70 0.31 d 691 0.88 Yes Yes
2000YN29 O C 2000-12-28.20655 1.000E-05 05:13:38.310 1.500E-01 0.600 F -0.014 -0.727 +25° 45' 08.40" 1.000E-01 0.600 F 0.239 -1.087 19.8 V 0.70 0.21 d 691 2.20 Yes Yes
2000QN130 O C 2000-12-29.15853 1.000E-05 04:22:54.240 1.500E-01 0.600 F -0.283 0.172 +19° 19' 36.90" 1.000E-01 0.600 F 0.319 -0.264 18.5 V 0.70 0.51 d 691 0.53 Yes Yes
2000QN130 O C 2000-12-29.16272 1.000E-05 04:22:54.570 1.500E-01 0.600 F -0.283 -0.122 +19° 19' 39.80" 1.000E-01 0.600 F 0.319 -0.234 18.5 V 0.70 0.51 d 691 0.44 Yes Yes
2000QN130 O C 2000-12-29.16695 1.000E-05 04:22:54.950 1.500E-01 0.600 F -0.283 0.248 +19° 19' 43.10" 1.000E-01 0.600 F 0.319 0.172 18.4 V 0.70 0.41 d 691 0.51 Yes Yes
2000YN29 O C 2000-12-29.19107 1.000E-05 05:11:42.350 1.500E-01 0.600 F -0.014 0.216 +25° 46' 04.60" 1.000E-01 0.600 F 0.239 -0.056 19.8 V 0.70 0.20 d 691 0.37 Yes Yes
2000YN29 O C 2000-12-29.19901 1.000E-05 05:11:41.380 1.500E-01 0.600 F -0.014 0.084 +25° 46' 05.10" 1.000E-01 0.600 F 0.239 -0.033 20.2 V 0.70 0.60 d 691 0.15 Yes Yes
2000YN29 O C 2000-12-29.20737 1.000E-05 05:11:40.370 1.500E-01 0.600 F -0.014 0.105 +25° 46' 05.50" 1.000E-01 0.600 F 0.239 -0.127 19.8 V 0.70 0.20 d 691 0.27 Yes Yes
2000WO67 O C H 2000-12-29.33833 1.000E-05 06:55:11.640 1.500E-01 0.600 F 0.164 -0.645 +20° 23' 51.60" 1.000E-01 0.600 F 0.246 1.153 19.1 V 0.70 0.24 d 691 2.21 Yes Yes
2000WO67 O C H 2000-12-29.37467 1.000E-05 06:55:07.850 1.500E-01 0.600 F 0.164 -0.088 +20° 24' 08.60" 1.000E-01 0.600 F 0.246 0.029 18.9 V 0.70 0.04 d 691 0.16 Yes Yes
2000WO67 O C H 2000-12-29.40280 1.000E-05 06:55:04.940 1.500E-01 0.600 F 0.164 0.593 +20° 24' 23.10" 1.000E-01 0.600 F 0.246 0.591 19.0 V 0.70 0.14 d 691 1.41 Yes Yes
2000YG4 O C H 2000-12-30.33987 1.000E-05 07:53:30.620 1.500E-01 0.600 F 0.280 -0.920 +16° 44' 54.70" 1.000E-01 0.600 F 0.398 0.838 19.3 V 0.70 0.48 d 691 2.10 Yes Yes
2000YG4 O C H 2000-12-30.34799 1.000E-05 07:53:31.420 1.500E-01 0.600 F 0.280 0.015 +16° 44' 44.70" 1.000E-01 0.600 F 0.398 0.494 19.8 V 0.70 0.98 d 691 0.83 Yes Yes
2000YN29 O C H 2000-12-30.35500 1.000E-05 05:09:24.860 1.500E-01 0.600 F -0.091 -0.050 +25° 47' 01.90" 1.000E-01 0.600 F 0.180 0.476 19.6 V 0.70 -0.02 d 691 0.80 Yes Yes
2000YN29 O C H 2000-12-30.35962 1.000E-05 05:09:24.250 1.500E-01 0.600 F -0.091 -0.796 +25° 47' 02.50" 1.000E-01 0.600 F 0.180 0.923 19.4 V 0.70 -0.22 d 691 2.04 Yes Yes
2000YN29 O C H 2000-12-30.36385 1.000E-05 05:09:23.740 1.500E-01 0.600 F -0.091 -0.828 +25° 47' 02.80" 1.000E-01 0.600 F 0.180 1.085 19.8 V 0.70 0.18 d 691 2.29 Yes Yes
2001AO2 O C 2000-12-30.37811 1.000E-05 07:30:01.360 1.500E-01 0.600 F 0.170 -0.554 +21° 37' 00.00" 1.000E-01 0.600 F 0.227 0.132 19.8 V 0.70 0.89 d 691 0.97 Yes Yes
2001AO2 O C 2000-12-30.40072 1.000E-05 07:30:00.140 1.500E-01 0.600 F 0.170 -0.651 +21° 37' 32.60" 1.000E-01 0.600 F 0.227 0.321 19.8 V 0.70 0.90 d 691 1.23 Yes Yes
2001AO2 O C 2000-12-30.42361 1.000E-05 07:29:58.910 1.500E-01 0.600 F 0.170 -0.728 +21° 38' 05.20" 1.000E-01 0.600 F 0.227 0.162 19.4 V 0.70 0.50 d 691 1.27 Yes Yes
2000YJ66 O C 2000-12-30.45408 1.000E-05 08:52:41.090 1.500E-01 0.600 F 0.232 -1.053 +19° 32' 05.10" 1.000E-01 0.600 F 0.499 -0.079 19.2 V 0.70 0.31 d 691 1.76 Yes Yes
2000YJ66 O C 2000-12-30.48893 1.000E-05 08:52:38.750 1.500E-01 0.600 F 0.232 -1.428 +19° 32' 09.90" 1.000E-01 0.600 F 0.499 -0.020 19.9 V 0.70 1.02 d 691 2.38 Yes Yes
2000YJ66 O C 2000-12-30.52430 1.000E-05 08:52:36.440 1.500E-01 0.600 F 0.232 -0.990 +19° 32' 14.50" 1.000E-01 0.600 F 0.499 -0.165 19.0 V 0.70 0.12 d 691 1.67 Yes Yes
2000YN29 O C 2000-12-31.16093 1.000E-05 05:07:50.990 1.500E-01 0.600 F 0.060 0.145 +25° 47' 36.00" 1.000E-01 0.600 F 0.237 -0.300 19.6 V 0.70 -0.02 d 691 0.56 Yes Yes
2000YN29 O C 2000-12-31.16509 1.000E-05 05:07:50.490 1.500E-01 0.600 F 0.060 0.133 +25° 47' 36.30" 1.000E-01 0.600 F 0.237 -0.210 19.7 V 0.70 0.08 d 691 0.42 Yes Yes
2000YN29 O C 2000-12-31.16964 1.000E-05 05:07:49.940 1.500E-01 0.600 F 0.060 0.081 +25° 47' 36.50" 1.000E-01 0.600 F 0.237 -0.236 19.9 V 0.70 0.28 d 691 0.42 Yes Yes
2000YO29 O C t 2000-12-31.26436 1.000E-05 04:19:47.650 1.500E-01 0.600 F -0.028 0.291 +05° 59' 49.60" 1.000E-01 0.600 F 0.298 0.812 d 691 1.48 Yes No
2000YO29 O C t 2000-12-31.26845 1.000E-05 04:19:46.590 1.500E-01 0.600 F -0.028 0.510 +05° 59' 34.50" 1.000E-01 0.600 F 0.298 0.839 d 691 1.68 Yes No
2000YJ66 O C 2000-12-31.29156 1.000E-05 08:51:47.090 1.500E-01 0.600 F 0.232 -0.161 +19° 34' 03.60" 1.000E-01 0.600 F 0.499 -0.014 19.2 V 0.70 0.33 d 691 0.27 Yes Yes
2000YJ66 O C 2000-12-31.29613 1.000E-05 08:51:46.780 1.500E-01 0.600 F 0.232 -0.189 +19° 34' 04.20" 1.000E-01 0.600 F 0.499 -0.099 19.2 V 0.70 0.33 d 691 0.36 Yes Yes
2000YJ66 O C 2000-12-31.30056 1.000E-05 08:51:46.480 1.500E-01 0.600 F 0.232 -0.206 +19° 34' 04.90" 1.000E-01 0.600 F 0.499 -0.062 19.1 V 0.70 0.23 d 691 0.36 Yes Yes
2000YJ66 O C 2001-01-01.34377 1.000E-05 08:50:37.090 1.500E-01 0.600 F 0.232 0.016 +19° 36' 36.30" 1.000E-01 0.600 F 0.499 0.078 19.1 V 0.70 0.25 d 691 0.13 Yes Yes
2000YJ66 O C 2001-01-01.34830 1.000E-05 08:50:36.770 1.500E-01 0.600 F 0.232 -0.064 +19° 36' 37.00" 1.000E-01 0.600 F 0.499 0.100 19.1 V 0.70 0.25 d 691 0.20 Yes Yes
2000YJ66 O C 2001-01-01.35785 1.000E-05 08:50:36.110 1.500E-01 0.600 F 0.232 -0.021 +19° 36' 38.50" 1.000E-01 0.600 F 0.499 0.174 19.0 V 0.70 0.15 d 691 0.29 Yes Yes
2000WK107 O C H 2001-01-03.10683 1.000E-05 02:14:01.460 1.500E-01 0.600 F -0.133 -0.058 +03° 35' 09.20" 1.000E-01 0.600 F 0.165 0.717 20.9 V 0.70 0.08 d 691 1.21 Yes Yes
2000WK107 O C H 2001-01-03.11227 1.000E-05 02:14:01.580 1.500E-01 0.600 F -0.133 -0.346 +03° 35' 04.50" 1.000E-01 0.600 F 0.165 0.232 21.0 V 0.70 0.18 d 691 0.70 Yes Yes
2000WK107 O C H 2001-01-03.11811 1.000E-05 02:14:01.800 1.500E-01 0.600 F -0.133 0.710 +03° 34' 58.50" 1.000E-01 0.600 F 0.165 -1.243 21.2 V 0.70 0.38 d 691 2.42 Yes Yes
2000YJ66 O C 2001-01-03.33295 1.000E-05 08:48:20.490 1.500E-01 0.600 F 0.287 -0.270 +19° 41' 32.00" 1.000E-01 0.600 F 0.328 -0.125 19.0 V 0.70 0.18 d 691 0.50 Yes Yes
2000YJ66 O C 2001-01-03.33884 1.000E-05 08:48:20.070 1.500E-01 0.600 F 0.287 -0.196 +19° 41' 33.00" 1.000E-01 0.600 F 0.328 -0.037 18.9 V 0.70 0.08 d 691 0.33 Yes Yes
2000YJ66 O C 2001-01-03.34482 1.000E-05 08:48:19.640 1.500E-01 0.600 F 0.287 -0.168 +19° 41' 34.00" 1.000E-01 0.600 F 0.328 0.040 18.9 V 0.70 0.08 d 691 0.29 Yes Yes
2000YJ66 O C H 2001-01-04.36042 1.000E-05 08:47:07.660 1.500E-01 0.600 F 0.245 -1.483 +19° 44' 07.60" 1.000E-01 0.600 F 0.368 -1.017 17.3 V 0.70 -1.50 d 691 3.00 Yes Yes
2000YJ66 O C H 2001-01-04.36630 1.000E-05 08:47:07.370 1.500E-01 0.600 F 0.245 0.537 +19° 44' 10.60" 1.000E-01 0.600 F 0.368 1.073 19.1 V 0.70 0.30 d 691 2.00 Yes Yes
2000YJ66 O C H 2001-01-04.37201 1.000E-05 08:47:06.830 1.500E-01 0.600 F 0.245 -1.148 +19° 44' 11.70" 1.000E-01 0.600 F 0.368 1.291 18.9 V 0.70 0.10 d 691 2.88 Yes Yes
2000YJ66 O C 2001-01-14.47851 1.000E-05 08:34:14.710 1.500E-01 0.600 F 0.179 0.343 +20° 10' 26.50" 1.000E-01 0.600 F 0.466 -0.187 18.8 V 0.70 0.19 d 691 0.65 Yes Yes
2000YJ66 O C 2001-01-14.48381 1.000E-05 08:34:14.280 1.500E-01 0.600 F 0.179 0.366 +20° 10' 27.10" 1.000E-01 0.600 F 0.466 -0.356 18.8 V 0.70 0.19 d 691 0.85 Yes Yes
2000YJ66 O C 2001-01-14.48924 1.000E-05 08:34:13.840 1.500E-01 0.600 F 0.179 0.393 +20° 10' 27.90" 1.000E-01 0.600 F 0.466 -0.343 18.8 V 0.70 0.19 d 691 0.87 Yes Yes
2000YN29 O C 2001-01-15.18482 1.000E-05 04:40:59.250 1.500E-01 0.600 F -0.023 0.324 +25° 48' 25.10" 1.000E-01 0.600 F 0.362 -0.107 20.2 V 0.70 0.43 d 691 0.57 Yes Yes
2000YN29 O C 2001-01-15.19758 1.000E-05 04:40:58.020 1.500E-01 0.600 F -0.023 0.236 +25° 48' 24.80" 1.000E-01 0.600 F 0.362 -0.126 20.2 V 0.70 0.43 d 691 0.45 Yes Yes
2000YN29 O C 2001-01-15.20963 1.000E-05 04:40:56.890 1.500E-01 0.600 F -0.023 0.571 +25° 48' 24.50" 1.000E-01 0.600 F 0.362 -0.142 20.3 V 0.70 0.53 d 691 0.99 Yes Yes
2000YJ66 O C 2001-01-15.38494 1.000E-05 08:33:02.310 1.500E-01 0.600 F 0.179 0.204 +20° 12' 45.20" 1.000E-01 0.600 F 0.466 -0.156 d 691 0.43 Yes No
2000YJ66 O C 2001-01-15.38961 1.000E-05 08:33:01.930 1.500E-01 0.600 F 0.179 0.273 +20° 12' 46.00" 1.000E-01 0.600 F 0.466 -0.051 d 691 0.46 Yes No
2000YJ66 O C 2001-01-15.39440 1.000E-05 08:33:01.540 1.500E-01 0.600 F 0.179 0.338 +20° 12' 46.70" 1.000E-01 0.600 F 0.466 -0.063 d 691 0.57 Yes No
2000YG4 O C 2001-01-15.40155 1.000E-05 08:26:18.410 1.500E-01 0.600 F 0.054 0.786 +09° 47' 26.20" 1.000E-01 0.600 F 0.155 -0.750 d 691 1.83 Yes No
2000YG4 O C 2001-01-15.40606 1.000E-05 08:26:18.960 1.500E-01 0.600 F 0.054 0.178 +09° 47' 17.60" 1.000E-01 0.600 F 0.155 -0.420 d 691 0.77 Yes No
2000YG4 O C 2001-01-15.41061 1.000E-05 08:26:19.570 1.500E-01 0.600 F 0.054 0.365 +09° 47' 08.60" 1.000E-01 0.600 F 0.155 -0.406 d 691 0.92 Yes No
2001BB40 O C t 2001-01-24.19344 1.000E-05 06:57:35.870 1.500E-01 0.849 F 0.101 -0.338 +25° 26' 15.40" 1.000E-01 0.849 F 0.298 0.524 d 691 0.79 Yes No
2001BB40 O C t 2001-01-24.20166 1.000E-05 06:57:44.210 1.500E-01 0.849 F 0.101 -0.693 +25° 30' 25.00" 1.000E-01 0.849 F 0.298 0.360 d 691 0.98 Yes No
2001BB40 O C t 2001-01-24.20597 1.000E-05 06:57:48.650 1.500E-01 0.849 F 0.101 0.077 +25° 32' 35.60" 1.000E-01 0.849 F 0.298 0.159 d 691 0.23 Yes No
2001BB40 O C t 2001-01-24.22080 1.000E-05 06:58:03.690 1.500E-01 0.849 F 0.182 -0.376 +25° 40' 04.30" 1.000E-01 0.849 F 0.363 -0.426 19.0 V 0.70 0.50 d 691 0.72 Yes Yes
2001BB40 O C t 2001-01-24.22551 1.000E-05 06:58:08.480 1.500E-01 0.849 F 0.182 -0.270 +25° 42' 27.40" 1.000E-01 0.849 F 0.363 0.279 18.5 V 0.70 0.00 d 691 0.49 Yes Yes
2001BB40 O C t 2001-01-24.27178 1.000E-05 06:58:55.480 1.500E-01 0.849 F 0.182 -0.053 +26° 05' 38.30" 1.000E-01 0.849 F 0.363 -0.367 18.0 V 0.70 -0.50 d 691 0.47 Yes Yes
2001BB40 O C t 2001-01-24.30397 1.000E-05 06:59:28.370 1.500E-01 0.849 F 0.182 0.923 +26° 21' 39.00" 1.000E-01 0.849 F 0.363 0.214 d 691 1.23 Yes No
Toutatis O C 2001-01-24.37088 1.000E-05 09:09:33.420 1.500E-01 0.600 F 0.081 -0.057 +16° 20' 24.30" 1.000E-01 0.600 F 0.283 -0.106 14.9 V 0.70 0.22 d 691 0.20 Yes Yes
Toutatis O C 2001-01-24.39256 1.000E-05 09:09:30.890 1.500E-01 0.600 F 0.081 0.024 +16° 20' 35.90" 1.000E-01 0.600 F 0.283 -0.157 14.7 V 0.70 0.02 d 691 0.26 Yes Yes
2001BB40 O C t 2001-01-24.40715 1.000E-05 07:01:15.670 1.500E-01 0.849 F 0.062 0.353 +27° 12' 12.10" 1.000E-01 0.849 F 0.140 -0.675 d 691 0.97 Yes No
Toutatis O C 2001-01-24.42354 1.000E-05 09:09:27.270 1.500E-01 0.600 F 0.081 -0.124 +16° 20' 52.40" 1.000E-01 0.600 F 0.283 -0.143 14.6 V 0.70 -0.08 d 691 0.32 Yes Yes
2001BB40 O C H 2001-01-25.08750 1.000E-05 07:14:39.100 1.500E-01 0.600 F 0.075 0.386 +32° 34' 01.00" 1.000E-01 0.600 F 0.251 -0.139 d 691 1.65 Yes No
2001BB40 O C H 2001-01-25.40997 1.000E-05 07:20:33.100 1.500E-01 0.600 F 0.328 2.030 +34° 56' 55.20" 1.000E-01 0.600 F 0.256 -1.831 d 691 3.98 No No
2001BB40 O C H 2001-01-26.40995 1.000E-05 07:40:47.380 1.500E-01 0.600 F 0.178 -0.410 +41° 33' 32.20" 1.000E-01 0.600 F 0.262 -0.099 d 691 0.98 Yes No
2001BB40 O C H 2001-01-26.41375 1.000E-05 07:40:51.890 1.500E-01 0.600 F 0.178 0.210 +41° 34' 52.80" 1.000E-01 0.600 F 0.262 0.213 d 691 0.71 Yes No
2005EA60 O C 2001-02-13.30376 1.000E-05 10:33:17.200 1.500E-01 0.600 F 0.444 0.260 +09° 50' 27.10" 1.000E-01 0.600 F 0.293 0.207 19.9 V 0.70 0.38 d 691 0.55 Yes Yes
2005EA60 O C 2001-02-13.32487 1.000E-05 10:33:15.890 1.500E-01 0.600 F 0.444 0.181 +09° 50' 28.90" 1.000E-01 0.600 F 0.293 0.274 19.8 V 0.70 0.28 d 691 0.55 Yes Yes
2005EA60 O C 2001-02-13.34591 1.000E-05 10:33:14.580 1.500E-01 0.600 F 0.444 0.085 +09° 50' 30.80" 1.000E-01 0.600 F 0.293 0.492 19.5 V 0.70 -0.02 d 691 0.84 Yes Yes
2001DR8 O C 2001-02-16.31384 1.000E-05 10:27:05.150 1.500E-01 0.600 F 0.274 0.497 +10° 42' 04.00" 1.000E-01 0.600 F 0.265 0.331 21.4 V 0.70 0.92 d 691 1.00 Yes Yes
2001DR8 O C 2001-02-16.33493 1.000E-05 10:27:02.480 1.500E-01 0.600 F 0.274 0.751 +10° 42' 13.50" 1.000E-01 0.600 F 0.265 -0.099 20.9 V 0.70 0.42 d 691 1.28 Yes Yes
2001DR8 O C 2001-02-16.35598 1.000E-05 10:26:59.810 1.500E-01 0.600 F 0.274 0.925 +10° 42' 23.80" 1.000E-01 0.600 F 0.265 0.318 20.7 V 0.70 0.22 d 691 1.64 Yes Yes
2001DR8 O C 2001-02-17.27906 1.000E-05 10:25:05.940 1.500E-01 0.600 F 0.274 0.116 +10° 49' 33.40" 1.000E-01 0.600 F 0.265 -0.304 21.0 V 0.70 0.55 d 691 0.55 Yes Yes
2001DR8 O C 2001-02-17.28294 1.000E-05 10:25:05.440 1.500E-01 0.600 F 0.274 -0.041 +10° 49' 35.20" 1.000E-01 0.600 F 0.265 -0.310 21.2 V 0.70 0.75 d 691 0.52 Yes Yes
2001DR8 O C 2001-02-17.28691 1.000E-05 10:25:04.940 1.500E-01 0.600 F 0.274 -0.030 +10° 49' 37.00" 1.000E-01 0.600 F 0.265 -0.356 20.8 V 0.70 0.35 d 691 0.60 Yes Yes
2001DB3 O C 2001-02-17.40254 1.000E-05 10:26:39.040 1.500E-01 0.600 F 0.285 -0.474 +21° 17' 50.90" 1.000E-01 0.600 F 0.259 0.140 19.9 V 0.70 0.98 d 691 0.84 Yes Yes
2001DB3 O C 2001-02-17.40661 1.000E-05 10:26:38.580 1.500E-01 0.600 F 0.285 -0.384 +21° 17' 49.60" 1.000E-01 0.600 F 0.259 0.008 19.7 V 0.70 0.78 d 691 0.65 Yes Yes
2001DB3 O C 2001-02-17.41128 1.000E-05 10:26:38.040 1.500E-01 0.600 F 0.285 -0.454 +21° 17' 48.30" 1.000E-01 0.600 F 0.259 0.049 19.9 V 0.70 0.98 d 691 0.77 Yes Yes
2001DR8 O C H 2001-02-19.33079 1.000E-05 10:20:56.280 1.500E-01 0.600 F 0.298 1.735 +11° 05' 03.50" 1.000E-01 0.600 F 0.345 -0.984 d 691 3.28 No No
2001DR8 O C H 2001-02-19.33493 1.000E-05 10:20:55.720 1.500E-01 0.600 F 0.298 1.013 +11° 05' 05.80" 1.000E-01 0.600 F 0.345 -0.522 d 691 1.93 Yes No
2001DR8 O C H 2001-02-19.33902 1.000E-05 10:20:55.280 1.500E-01 0.600 F 0.298 1.966 +11° 05' 06.70" 1.000E-01 0.600 F 0.345 -1.436 d 691 4.00 No No
2000VH61 O C H 2001-02-20.10512 1.000E-05 03:02:25.730 1.500E-01 0.600 F -0.118 0.253 +07° 19' 27.00" 1.000E-01 0.600 F 0.406 0.832 21.9 V 0.70 0.78 d 691 1.46 Yes Yes
2000VH61 O C H 2001-02-20.10909 1.000E-05 03:02:26.510 1.500E-01 0.600 F -0.118 0.475 +07° 19' 28.80" 1.000E-01 0.600 F 0.406 -0.054 21.3 V 0.70 0.18 d 691 0.86 Yes Yes
2000YJ66 O C 2001-02-20.17218 1.000E-05 07:53:02.000 1.500E-01 0.600 F 0.204 0.142 +21° 00' 52.10" 1.000E-01 0.600 F 0.326 -0.189 20.5 V 0.70 1.02 d 691 0.39 Yes Yes
2000YJ66 O C 2001-02-20.20473 1.000E-05 07:53:00.620 1.500E-01 0.600 F 0.204 0.008 +21° 00' 51.90" 1.000E-01 0.600 F 0.326 -0.375 20.3 V 0.70 0.82 d 691 0.62 Yes Yes
2000YJ66 O C 2001-02-20.24114 1.000E-05 07:52:59.080 1.500E-01 0.600 F 0.204 -0.105 +21° 00' 52.10" 1.000E-01 0.600 F 0.326 -0.077 20.4 V 0.70 0.92 d 691 0.22 Yes Yes
2001BP61 O C 2001-02-20.30372 1.000E-05 08:01:40.360 1.500E-01 0.600 F 0.319 0.163 -00° 05' 16.70" 1.000E-01 0.600 F 0.198 -0.083 21.5 V 0.70 0.75 d 691 0.31 Yes Yes
2001BP61 O C 2001-02-20.31826 1.000E-05 08:01:39.810 1.500E-01 0.600 F 0.319 0.041 -00° 05' 16.60" 1.000E-01 0.600 F 0.198 -0.114 21.1 V 0.70 0.35 d 691 0.20 Yes Yes
2001BP61 O C 2001-02-20.33149 1.000E-05 08:01:39.330 1.500E-01 0.600 F 0.319 0.170 -00° 05' 16.70" 1.000E-01 0.600 F 0.198 -0.336 21.5 V 0.70 0.75 d 691 0.64 Yes Yes
2001FA58 O C 2001-02-20.38917 1.000E-05 11:38:05.910 1.500E-01 0.600 F 0.400 0.146 +02° 49' 25.70" 1.000E-01 0.600 F 0.356 -0.435 22.0 V 0.70 0.36 d 691 0.78 Yes Yes
2001FA58 O C 2001-02-20.41112 1.000E-05 11:38:05.340 1.500E-01 0.600 F 0.400 0.008 +02° 49' 45.70" 1.000E-01 0.600 F 0.356 -0.557 21.9 V 0.70 0.26 d 691 0.95 Yes Yes
2001FA58 O C 2001-02-20.43293 1.000E-05 11:38:04.810 1.500E-01 0.600 F 0.400 0.381 +02° 50' 05.60" 1.000E-01 0.600 F 0.356 -0.668 22.0 V 0.70 0.37 d 691 1.31 Yes Yes
2001DR8 O C 2001-02-23.24111 1.000E-05 10:13:19.480 1.500E-01 0.600 F 0.417 0.299 +11° 32' 44.60" 1.000E-01 0.600 F 0.258 -0.215 21.6 V 0.70 1.06 d 691 0.62 Yes Yes
2001DR8 O C 2001-02-23.24668 1.000E-05 10:13:18.860 1.500E-01 0.600 F 0.417 0.691 +11° 32' 47.50" 1.000E-01 0.600 F 0.258 0.415 21.4 V 0.70 0.86 d 691 1.35 Yes Yes
2001DR8 O C 2001-02-23.25245 1.000E-05 10:13:18.150 1.500E-01 0.600 F 0.417 0.103 +11° 32' 49.50" 1.000E-01 0.600 F 0.258 0.065 21.1 V 0.70 0.56 d 691 0.20 Yes Yes
2001DR8 O C I 2001-02-27.31179 1.000E-05 10:05:56.350 1.500E-01 0.600 F 0.334 1.341 +11° 58' 31.40" 1.000E-01 0.600 F 0.372 -1.608 20.8 V 0.70 -0.03 d 691 3.45 No Yes
2001DR8 O C 2001-02-27.31927 1.000E-05 10:05:55.470 1.500E-01 0.600 F 0.334 0.189 +11° 58' 35.20" 1.000E-01 0.600 F 0.372 -0.460 22.1 V 0.70 1.27 d 691 0.84 Yes Yes
2001DR8 O C 2001-02-27.32787 1.000E-05 10:05:54.550 1.500E-01 0.600 F 0.334 0.206 +11° 58' 38.60" 1.000E-01 0.600 F 0.372 -0.105 21.3 V 0.70 0.47 d 691 0.39 Yes Yes
2001FA58 O C 2001-02-27.34625 1.000E-05 11:34:27.050 1.500E-01 0.600 F 0.254 0.421 +05° 05' 33.30" 1.000E-01 0.600 F 0.359 0.143 21.3 V 0.70 0.42 d 691 0.75 Yes Yes
2001FA58 O C 2001-02-27.36972 1.000E-05 11:34:25.810 1.500E-01 0.600 F 0.254 0.353 +05° 06' 07.60" 1.000E-01 0.600 F 0.359 -0.117 21.8 V 0.70 0.93 d 691 0.63 Yes Yes
2001FA58 O C 2001-02-27.39080 1.000E-05 11:34:24.710 1.500E-01 0.600 F 0.254 0.502 +05° 06' 39.30" 1.000E-01 0.600 F 0.359 0.527 21.7 V 0.70 0.83 d 691 1.24 Yes Yes
2001DT8 O C H 2001-03-02.17764 1.000E-05 06:20:42.450 1.500E-01 0.600 F 0.161 0.305 -08° 13' 02.60" 1.000E-01 0.600 F 0.154 -0.405 20.1 V 0.70 0.65 d 691 0.96 Yes Yes
2001DT8 O C H 2001-03-02.18523 1.000E-05 06:20:42.210 1.500E-01 0.600 F 0.161 -0.835 -08° 13' 33.60" 1.000E-01 0.600 F 0.154 1.122 19.9 V 0.70 0.45 d 691 2.65 Yes Yes
2001DT8 O C H 2001-03-02.19296 1.000E-05 06:20:42.140 1.500E-01 0.600 F 0.161 0.575 -08° 14' 07.70" 1.000E-01 0.600 F 0.154 0.128 20.4 V 0.70 0.95 d 691 1.11 Yes Yes
1998HK1 O C H 2001-03-02.23114 1.000E-05 08:08:56.330 1.500E-01 0.600 F 0.331 0.373 +05° 22' 43.00" 1.000E-01 0.600 F 0.148 -0.419 21.4 V 0.70 -0.57 d 691 0.94 Yes Yes
1998HK1 O C H 2001-03-02.23964 1.000E-05 08:08:55.900 1.500E-01 0.600 F 0.331 0.624 +05° 22' 47.90" 1.000E-01 0.600 F 0.148 0.154 20.9 V 0.70 -1.07 d 691 1.08 Yes Yes
1998HK1 O C H 2001-03-02.24730 1.000E-05 08:08:55.490 1.500E-01 0.600 F 0.331 0.507 +05° 22' 53.40" 1.000E-01 0.600 F 0.148 1.756 21.3 V 0.70 -0.67 d 691 3.05 Yes Yes
1998QA1 O C 2001-03-02.34106 1.000E-05 11:03:56.960 1.500E-01 0.600 F 0.455 -0.297 -08° 28' 52.90" 1.000E-01 0.600 F 0.164 0.223 21.2 V 0.70 0.93 d 691 0.63 Yes Yes
1998QA1 O C 2001-03-02.34828 1.000E-05 11:03:56.260 1.500E-01 0.600 F 0.455 -0.355 -08° 28' 53.80" 1.000E-01 0.600 F 0.164 0.160 21.5 V 0.70 1.23 d 691 0.66 Yes Yes
1998QA1 O C I 2001-03-02.35587 1.000E-05 11:03:55.560 1.500E-01 0.600 F 0.455 0.116 -08° 28' 55.70" 1.000E-01 0.600 F 0.164 -0.865 21.7 V 0.70 1.43 d 691 1.47 Yes Yes
1997EH29 O C 2001-03-02.36898 1.000E-05 12:11:42.120 1.500E-01 0.600 F 0.517 -0.132 -03° 10' 56.30" 1.000E-01 0.600 F 0.276 -0.145 21.2 V 0.70 0.75 d 691 0.33 Yes Yes
1997EH29 O C 2001-03-02.37646 1.000E-05 12:11:41.080 1.500E-01 0.600 F 0.517 0.045 -03° 10' 45.90" 1.000E-01 0.600 F 0.276 0.018 21.1 V 0.70 0.65 d 691 0.08 Yes Yes
1997EH29 O C 2001-03-02.38440 1.000E-05 12:11:39.980 1.500E-01 0.600 F 0.517 0.294 -03° 10' 35.10" 1.000E-01 0.600 F 0.276 -0.052 21.0 V 0.70 0.55 d 691 0.50 Yes Yes
2001DB3 O C 2001-03-15.12462 1.000E-05 09:34:44.670 1.500E-01 0.600 F 0.110 0.253 +17° 20' 30.60" 1.000E-01 0.600 F 0.249 0.218 19.1 V 0.70 0.15 d 691 0.56 Yes Yes
2001DB3 O C 2001-03-15.14618 1.000E-05 09:34:42.200 1.500E-01 0.600 F 0.110 0.405 +17° 20' 12.90" 1.000E-01 0.600 F 0.249 0.221 19.0 V 0.70 0.05 d 691 0.77 Yes Yes
2001DB3 O C 2001-03-15.16758 1.000E-05 09:34:39.740 1.500E-01 0.600 F 0.110 0.500 +17° 19' 55.20" 1.000E-01 0.600 F 0.249 0.141 18.9 V 0.70 -0.05 d 691 0.87 Yes Yes
2001DR8 O C H 2001-03-15.18699 1.000E-05 09:44:00.190 1.500E-01 0.600 F 0.374 0.457 +13° 06' 20.20" 1.000E-01 0.600 F 0.381 1.340 21.4 V 0.70 -0.30 d 691 2.37 Yes Yes
2001DR8 O C H 2001-03-15.19089 1.000E-05 09:43:59.860 1.500E-01 0.600 F 0.374 -0.761 +13° 06' 19.90" 1.000E-01 0.600 F 0.381 0.411 21.6 V 0.70 -0.10 d 691 1.46 Yes Yes
2001DR8 O C H 2001-03-15.19480 1.000E-05 09:43:59.670 1.500E-01 0.600 F 0.374 0.076 +13° 06' 21.00" 1.000E-01 0.600 F 0.381 0.882 21.3 V 0.70 -0.40 d 691 1.48 Yes Yes
1998QA1 O C 2001-03-15.27462 1.000E-05 10:41:31.370 1.500E-01 0.600 F 0.065 0.030 -08° 31' 04.10" 1.000E-01 0.600 F 0.616 -0.261 20.7 V 0.70 0.75 d 691 0.45 Yes Yes
1998QA1 O C 2001-03-15.27840 1.000E-05 10:41:30.930 1.500E-01 0.600 F 0.065 0.055 -08° 31' 03.10" 1.000E-01 0.600 F 0.616 0.370 20.9 V 0.70 0.95 d 691 0.63 Yes Yes
1998QA1 O C 2001-03-15.28222 1.000E-05 10:41:30.470 1.500E-01 0.600 F 0.065 -0.148 -08° 31' 03.20" 1.000E-01 0.600 F 0.616 -0.104 21.0 V 0.70 1.05 d 691 0.30 Yes Yes
1997EH29 O C 2001-03-15.34948 1.000E-05 11:41:31.890 1.500E-01 0.600 F 0.478 0.144 +01° 49' 54.20" 1.000E-01 0.600 F 0.441 -0.365 20.1 V 0.70 0.19 d 691 0.66 Yes Yes

[1-200] [201-400] [401-600] [601-800] [801-1000] [1001-1200] [1201-1400] [1401-1600] [1601-1800] [1801-2000] [2001-2200] [2201-2400] [2401-2600] [2601-2800] [2801-3000] [3001-3200] [3201-3400] [3401-3600] [3601-3800] [3801-4000] [4001-4200] [4201-4400] [4401-4600] [4601-4800] [4801-5000] [5001-5200] [5201-5400] [5401-5600] [5601-5800] [5801-6000] [6001-6200] [6201-6400] [6401-6600] [6601-6800] [6801-7000] [7001-7200] [7201-7400] [7401-7600] [7601-7800] [7801-8000] [8001-8200] [8201-8400] [8401-8600] [8601-8800] [8801-9000] [9001-9200] [9201-9400] [9401-9600] [9601-9800] [9801-10000] [10001-10200] [10201-10400] [10401-10600] [10601-10800] [10801-11000] [11001-11200] [11201-11400] [11401-11600] [11601-11800] [11801-12000] [12001-12200] [12201-12400] [12401-12600] [12601-12800] [12801-13000] [13001-13200] [13201-13400] [13401-13600] [13601-13800] [13801-14000] [14001-14200] [14201-14400] [14401-14600] [14601-14800] [14801-15000] [15001-15200] [15201-15400] [15401-15600] [15601-15800] [15801-16000] [16001-16200] [16201-16400] [16401-16600] [16601-16800] [16801-17000] [17001-17200] [17201-17400] [17401-17600] [17601-17800] [17801-18000] [18001-18200] [18201-18400] [18401-18600] [18601-18800] [18801-19000] [19001-19200] [19201-19400] [19401-19600] [19601-19800] [19801-20000] [20001-20200] [20201-20400] [20401-20600] [20601-20800] [20801-21000] [21001-21200] [21201-21400] [21401-21600] [21601-21800] [21801-22000] [22001-22200] [22201-22400] [22401-22600] [22601-22800] [22801-23000] [23001-23200] [23201-23400] [23401-23600] [23601-23800] [23801-24000] [24001-24200] [24201-24400] [24401-24600] [24601-24800] [24801-25000] [25001-25200] [25201-25400] [25401-25600] [25601-25800] [25801-26000] [26001-26200] [26201-26400] [26401-26600] [26601-26800] [26801-27000] [27001-27200] [27201-27400] [27401-27600] [27601-27800] [27801-28000] [28001-28200] [28201-28400] [28401-28600] [28601-28800] [28801-29000] [29001-29200] [29201-29400] [29401-29600] [29601-29800] [29801-30000] [30001-30200] [30201-30400] [30401-30600] [30601-30800] [30801-31000] [31001-31200] [31201-31400] [31401-31600] [31601-31800] [31801-32000] [32001-32200] [32201-32400] [32401-32600] [32601-32800] [32801-33000] [33001-33200] [33201-33400] [33401-33600] [33601-33800] [33801-34000] [34001-34200] [34201-34400] [34401-34600] [34601-34800] [34801-35000] [35001-35200] [35201-35400] [35401-35600] [35601-35800] [35801-36000] [36001-36200] [36201-36400] [36401-36600] [36601-36800] [36801-37000] [37001-37200] [37201-37400] [37401-37600] [37601-37800] [37801-38000] [38001-38200] [38201-38400] [38401-38600] [38601-38800] [38801-39000] [39001-39200] [39201-39400] [39401-39600] [39601-39800] [39801-40000] [40001-40200] [40201-40400] [40401-40600] [40601-40800] [40801-41000] [41001-41200] [41201-41400] [41401-41600] [41601-41800] [41801-42000] [42001-42200] [42201-42400] [42401-42600] [42601-42800] [42801-43000] [43001-43200] [43201-43400] [43401-43600] [43601-43800] [43801-44000] [44001-44200] [44201-44400] [44401-44600] [44601-44800] [44801-45000] [45001-45200] [45201-45400] [45401-45600] [45601-45800] [45801-46000] [46001-46200] [46201-46400] [46401-46600] [46601-46800] [46801-47000] [47001-47200] [47201-47400] [47401-47600] [47601-47800] [47801-48000] [48001-48200] [48201-48400] [48401-48600] [48601-48800] [48801-49000] [49001-49200] [49201-49400] [49401-49600] [49601-49800] [49801-50000] [50001-50200] [50201-50388]